Time;durP1;ratioP1;P1;durP2;ratioP2;P2;SDS_P1;SDS_P2;PMS_P1;PMS_P2;Temp;Humidity;BMP_temperature;BMP_pressure;BME280_temperature;BME280_humidity;BME280_pressure;Samples;Min_cycle;Max_cycle;Signal;HPM_P1;HPM_P2
2024/02/25 00:00:52;;;;;;;;;;;281.90;2278.40;;;;;;5090994;28;19908;-81
2024/02/25 00:03:18;;;;;;;;;;;282.00;2278.40;;;;;;5068444;28;19908;-80
2024/02/25 00:05:43;;;;;;;;;;;281.80;2278.40;;;;;;5084280;28;19913;-80
2024/02/25 00:08:09;;;;;;;;;;;281.90;2278.40;;;;;;5085757;28;19960;-79
2024/02/25 00:10:35;;;;;;;;;;;282.00;2278.40;;;;;;5091983;28;19908;-79
2024/02/25 00:13:00;;;;;;;;;;;282.00;2278.40;;;;;;5062484;28;19931;-79
2024/02/25 00:15:26;;;;;;;;;;;282.10;2278.40;;;;;;5067519;28;19909;-80
2024/02/25 00:17:52;;;;;;;;;;;282.10;2278.40;;;;;;5069282;28;19908;-79
2024/02/25 00:20:18;;;;;;;;;;;282.10;2278.40;;;;;;5088178;28;19916;-79
2024/02/25 00:22:43;;;;;;;;;;;282.10;2278.40;;;;;;5063214;28;19970;-79
2024/02/25 00:25:09;;;;;;;;;;;282.10;2278.40;;;;;;5078434;28;20372;-80
2024/02/25 00:27:35;;;;;;;;;;;282.00;2278.40;;;;;;5069035;28;19912;-79
2024/02/25 00:30:00;;;;;;;;;;;282.10;2278.40;;;;;;5070850;28;19909;-80
2024/02/25 00:32:27;;;;;;;;;;;282.10;2278.40;;;;;;5072036;28;19908;-79
2024/02/25 00:34:54;;;;;;;;;;;282.10;2278.40;;;;;;5075854;28;19931;-79
2024/02/25 00:37:20;;;;;;;;;;;282.10;2278.40;;;;;;5058372;28;20000;-79
2024/02/25 00:39:45;;;;;;;;;;;282.10;2278.40;;;;;;5109202;28;20003;-80
2024/02/25 00:42:11;;;;;;;;;;;282.10;2278.40;;;;;;5079188;28;19946;-81
2024/02/25 00:44:38;;;;;;;;;;;282.10;2278.40;;;;;;5079062;28;20350;-80
2024/02/25 00:47:03;;;;;;;;;;;282.00;2278.40;;;;;;5079017;28;19908;-80
2024/02/25 00:49:29;;;;;;;;;;;282.00;2278.40;;;;;;5078655;28;20278;-80
2024/02/25 00:51:55;;;;;;;;;;;281.90;2278.40;;;;;;5113041;28;19908;-80
2024/02/25 00:54:21;;;;;;;;;;;281.80;2278.40;;;;;;5078458;28;19915;-80
2024/02/25 00:56:48;;;;;;;;;;;281.80;2278.40;;;;;;5078234;28;19966;-79
2024/02/25 00:59:14;;;;;;;;;;;281.70;2278.40;;;;;;5078750;28;20019;-80
2024/02/25 01:01:39;;;;;;;;;;;281.80;2278.40;;;;;;5091376;28;19908;-79
2024/02/25 01:04:05;;;;;;;;;;;281.80;2278.40;;;;;;5088150;28;19912;-80
2024/02/25 01:06:31;;;;;;;;;;;281.80;2278.40;;;;;;5096457;28;19908;-80
2024/02/25 01:08:56;;;;;;;;;;;282.10;2278.40;;;;;;5078305;28;19991;-80
2024/02/25 01:11:22;;;;;;;;;;;281.70;2278.40;;;;;;5096828;28;19908;-81
2024/02/25 01:13:48;;;;;;;;;;;281.70;2227.20;;;;;;5096740;28;19912;-79
2024/02/25 01:16:13;;;;;;;;;;;281.70;2022.40;;;;;;5078574;28;19908;-79
2024/02/25 01:18:39;;;;;;;;;;;281.70;2227.20;;;;;;5078183;28;19912;-80
2024/02/25 01:21:05;;;;;;;;;;;281.70;2278.40;;;;;;5078194;28;20302;-80
2024/02/25 01:23:30;;;;;;;;;;;281.70;2048.00;;;;;;5078078;28;20351;-79
2024/02/25 01:25:56;;;;;;;;;;;281.60;2278.40;;;;;;5111210;28;19951;-80
2024/02/25 01:28:21;;;;;;;;;;;256.80;2073.60;;;;;;5078570;28;19927;-80
2024/02/25 01:30:47;;;;;;;;;;;256.70;2227.20;;;;;;5078088;28;19919;-79
2024/02/25 01:33:16;;;;;;;;;;;256.60;2252.80;;;;;;5077786;28;19908;-81
2024/02/25 01:35:42;;;;;;;;;;;256.50;2252.80;;;;;;5077621;28;19908;-80
2024/02/25 01:38:08;;;;;;;;;;;256.50;2252.80;;;;;;5077768;28;19908;-79
2024/02/25 01:40:34;;;;;;;;;;;256.50;2252.80;;;;;;5077774;28;20278;-81
2024/02/25 01:43:16;;;;;;;;;;;256.40;2252.80;;;;;;5077942;28;19908;-80
2024/02/25 01:45:42;;;;;;;;;;;256.40;2252.80;;;;;;5078087;28;19908;-79
2024/02/25 01:48:08;;;;;;;;;;;256.30;2252.80;;;;;;5095941;28;19912;-79
2024/02/25 01:50:36;;;;;;;;;;;256.30;2252.80;;;;;;5078150;28;19995;-80
2024/02/25 01:53:02;;;;;;;;;;;256.30;2252.80;;;;;;5077773;28;19911;-82
2024/02/25 01:55:31;;;;;;;;;;;256.30;2252.80;;;;;;5095263;28;19916;-79
2024/02/25 01:57:57;;;;;;;;;;;256.30;2252.80;;;;;;5095004;28;20340;-81
2024/02/25 02:00:23;;;;;;;;;;;256.40;2252.80;;;;;;5111324;28;19920;-78
2024/02/25 02:02:49;;;;;;;;;;;256.40;2252.80;;;;;;5076575;28;20271;-78
2024/02/25 02:05:14;;;;;;;;;;;256.40;2252.80;;;;;;5077435;28;19947;-81
2024/02/25 02:07:40;;;;;;;;;;;256.40;2252.80;;;;;;5076138;28;19947;-80
2024/02/25 02:10:09;;;;;;;;;;;256.40;2252.80;;;;;;5076197;28;19916;-81
2024/02/25 02:12:41;;;;;;;;;;;256.40;2252.80;;;;;;5077559;28;19954;-80
2024/02/25 02:15:07;;;;;;;;;;;256.50;2252.80;;;;;;5077484;28;19959;-79
2024/02/25 02:17:33;;;;;;;;;;;256.50;2252.80;;;;;;5076985;28;19908;-81
2024/02/25 02:20:00;;;;;;;;;;;256.40;2252.80;;;;;;5077168;28;20389;-81
2024/02/25 02:22:26;;;;;;;;;;;256.30;2252.80;;;;;;5077109;28;19939;-79
2024/02/25 02:24:52;;;;;;;;;;;256.30;2252.80;;;;;;5095039;28;19908;-80
2024/02/25 02:27:18;;;;;;;;;;;256.40;2252.80;;;;;;5062923;28;19924;-79
2024/02/25 02:29:43;;;;;;;;;;;256.20;2252.80;;;;;;5094899;28;19915;-79
2024/02/25 02:32:09;;;;;;;;;;;256.10;2252.80;;;;;;5109875;28;19916;-79
2024/02/25 02:34:35;;;;;;;;;;;256.10;2252.80;;;;;;5076713;28;19994;-78
2024/02/25 02:37:01;;;;;;;;;;;256.10;2252.80;;;;;;5076410;28;21470;-80
2024/02/25 02:39:26;;;;;;;;;;;256.10;2252.80;;;;;;5076061;28;19916;-80
2024/02/25 02:41:52;;;;;;;;;;;256.10;2252.80;;;;;;5094688;28;19955;-80
2024/02/25 02:44:18;;;;;;;;;;;256.10;2252.80;;;;;;5094731;28;19916;-80
2024/02/25 02:46:44;;;;;;;;;;;256.10;2252.80;;;;;;5094687;28;19916;-80
2024/02/25 02:49:09;;;;;;;;;;;256.10;2252.80;;;;;;5076502;28;20334;-80
2024/02/25 02:51:35;;;;;;;;;;;256.10;2252.80;;;;;;5095009;28;20021;-79
2024/02/25 02:54:02;;;;;;;;;;;256.10;2252.80;;;;;;5094656;28;19908;-81
2024/02/25 02:56:34;;;;;;;;;;;256.00;2252.80;;;;;;5109915;28;19931;-80
2024/02/25 02:58:59;;;;;;;;;;;256.00;2252.80;;;;;;5094567;28;19920;-79
2024/02/25 03:01:25;;;;;;;;;;;256.10;2252.80;;;;;;5094292;28;19915;-79
2024/02/25 03:03:51;;;;;;;;;;;256.10;2252.80;;;;;;5094290;28;19908;-81
2024/02/25 03:06:17;;;;;;;;;;;256.10;2252.80;;;;;;5106847;28;19962;-80
2024/02/25 03:08:42;;;;;;;;;;;256.10;2252.80;;;;;;5075977;28;19999;-82
2024/02/25 03:11:08;;;;;;;;;;;256.20;2252.80;;;;;;5075938;28;19947;-80
2024/02/25 03:13:34;;;;;;;;;;;256.20;2252.80;;;;;;5093374;28;20021;-81
2024/02/25 03:16:00;;;;;;;;;;;256.20;2252.80;;;;;;5094148;28;19947;-80
2024/02/25 03:18:26;;;;;;;;;;;256.30;2252.80;;;;;;5094095;28;19986;-80
2024/02/25 03:20:52;;;;;;;;;;;256.20;2252.80;;;;;;5093892;28;20029;-78
2024/02/25 03:23:18;;;;;;;;;;;256.20;2252.80;;;;;;5076370;28;19912;-80
2024/02/25 03:25:43;;;;;;;;;;;256.20;2252.80;;;;;;5075665;28;20364;-79
2024/02/25 03:28:09;;;;;;;;;;;256.10;2252.80;;;;;;5093652;28;19913;-78
2024/02/25 03:30:35;;;;;;;;;;;256.20;2252.80;;;;;;5093457;28;19914;-80
2024/02/25 03:33:01;;;;;;;;;;;256.20;2252.80;;;;;;5075374;28;19947;-78
2024/02/25 03:35:30;;;;;;;;;;;256.10;2252.80;;;;;;5075623;28;19995;-78
2024/02/25 03:37:56;;;;;;;;;;;256.10;2252.80;;;;;;5075892;28;19908;-77
2024/02/25 03:40:22;;;;;;;;;;;256.10;2252.80;;;;;;5093309;28;19917;-78
2024/02/25 03:42:48;;;;;;;;;;;256.10;2252.80;;;;;;5094168;28;20355;-80
2024/02/25 03:45:14;;;;;;;;;;;256.10;2252.80;;;;;;5075426;28;19957;-78
2024/02/25 03:47:40;;;;;;;;;;;256.20;2252.80;;;;;;5075830;28;20367;-81
2024/02/25 03:50:06;;;;;;;;;;;256.10;2252.80;;;;;;5069755;28;19970;-79
2024/02/25 03:52:32;;;;;;;;;;;256.10;2252.80;;;;;;5084172;28;19909;-78
2024/02/25 03:54:57;;;;;;;;;;;256.20;2252.80;;;;;;5075527;28;20264;-78
2024/02/25 03:57:23;;;;;;;;;;;256.30;2252.80;;;;;;5075287;28;20019;-78
2024/02/25 03:59:48;;;;;;;;;;;256.30;2252.80;;;;;;5093469;28;19916;-78
2024/02/25 04:02:14;;;;;;;;;;;256.40;2252.80;;;;;;5093692;28;19968;-78
2024/02/25 04:04:43;;;;;;;;;;;256.50;2252.80;;;;;;5075232;28;20390;-78
2024/02/25 04:07:08;;;;;;;;;;;256.50;2252.80;;;;;;5075584;28;19917;-78
2024/02/25 04:09:34;;;;;;;;;;;256.60;2252.80;;;;;;5109252;28;20011;-80
2024/02/25 04:12:00;;;;;;;;;;;256.60;2099.20;;;;;;5093509;28;19915;-78
2024/02/25 04:14:26;;;;;;;;;;;256.50;2252.80;;;;;;5109202;28;19908;-79
2024/02/25 04:16:51;;;;;;;;;;;256.70;2252.80;;;;;;5093332;28;19908;-81
2024/02/25 04:19:17;;;;;;;;;;;256.70;2099.20;;;;;;5093337;28;20304;-78
2024/02/25 04:21:43;;;;;;;;;;;256.70;1971.20;;;;;;5093233;28;19955;-78
2024/02/25 04:24:08;;;;;;;;;;;256.70;2252.80;;;;;;5075009;28;19934;-79
2024/02/25 04:26:34;;;;;;;;;;;256.70;2073.60;;;;;;5078735;28;19912;-77
2024/02/25 04:28:59;;;;;;;;;;;256.70;2201.60;;;;;;5097021;28;19935;-79
2024/02/25 04:31:25;;;;;;;;;;;256.70;2150.40;;;;;;5097172;28;19908;-78
2024/02/25 04:33:51;;;;;;;;;;;256.70;2252.80;;;;;;5096970;28;19915;-78
2024/02/25 04:36:19;;;;;;;;;;;256.80;1971.20;;;;;;5096995;28;19961;-79
2024/02/25 04:38:46;;;;;;;;;;;256.80;2252.80;;;;;;5096881;28;19913;-81
2024/02/25 04:41:12;;;;;;;;;;;256.80;2252.80;;;;;;5096975;28;20004;-80
2024/02/25 04:43:38;;;;;;;;;;;256.80;2252.80;;;;;;5112467;28;19956;-79
2024/02/25 04:46:03;;;;;;;;;;;256.60;2252.80;;;;;;5097086;28;20326;-80
2024/02/25 04:48:29;;;;;;;;;;;256.50;2252.80;;;;;;5096692;28;20260;-78
2024/02/25 04:50:55;;;;;;;;;;;256.50;2252.80;;;;;;5078819;28;19908;-78
2024/02/25 04:53:21;;;;;;;;;;;256.50;2252.80;;;;;;5096823;28;19908;-78
2024/02/25 04:55:47;;;;;;;;;;;256.50;2252.80;;;;;;5078090;28;19965;-80
2024/02/25 04:58:13;;;;;;;;;;;256.50;2252.80;;;;;;5078729;28;19912;-78
2024/02/25 05:00:38;;;;;;;;;;;256.50;2252.80;;;;;;5096754;28;19922;-79
2024/02/25 05:03:05;;;;;;;;;;;256.50;2252.80;;;;;;5096499;28;19931;-78
2024/02/25 05:05:30;;;;;;;;;;;256.70;2252.80;;;;;;5078475;28;19908;-78
2024/02/25 05:07:56;;;;;;;;;;;256.50;2252.80;;;;;;5078210;28;19908;-78
2024/02/25 05:10:22;;;;;;;;;;;256.40;2252.80;;;;;;5078473;28;19958;-78
2024/02/25 05:12:48;;;;;;;;;;;256.30;2252.80;;;;;;5078243;28;19916;-78
2024/02/25 05:15:14;;;;;;;;;;;256.20;2252.80;;;;;;5101393;28;19931;-78
2024/02/25 05:17:40;;;;;;;;;;;256.10;2252.80;;;;;;5075428;28;19908;-79
2024/02/25 05:20:06;;;;;;;;;;;256.00;2252.80;;;;;;5096248;28;19939;-79
2024/02/25 05:22:32;;;;;;;;;;;231.20;2252.80;;;;;;5078103;28;19915;-79
2024/02/25 05:24:58;;;;;;;;;;;256.20;2252.80;;;;;;5077973;28;19908;-79
2024/02/25 05:27:28;;;;;;;;;;;256.20;2252.80;;;;;;5077436;28;19965;-78
2024/02/25 05:29:55;;;;;;;;;;;256.20;2252.80;;;;;;5078111;28;19957;-78
2024/02/25 05:32:20;;;;;;;;;;;256.20;2252.80;;;;;;5071459;28;19908;-79
2024/02/25 05:34:46;;;;;;;;;;;256.20;2252.80;;;;;;5095870;28;19915;-79
2024/02/25 05:37:14;;;;;;;;;;;256.20;2252.80;;;;;;5076752;28;19916;-77
2024/02/25 05:39:39;;;;;;;;;;;256.20;2252.80;;;;;;5076858;28;19916;-76
2024/02/25 05:42:05;;;;;;;;;;;256.00;2252.80;;;;;;5095521;28;19954;-78
2024/02/25 05:44:30;;;;;;;;;;;256.00;2252.80;;;;;;5095779;28;19915;-77
2024/02/25 05:46:56;;;;;;;;;;;231.30;2252.80;;;;;;5077856;28;19962;-78
2024/02/25 05:49:21;;;;;;;;;;;256.00;2252.80;;;;;;5077823;28;19908;-79
2024/02/25 05:51:47;;;;;;;;;;;256.00;2252.80;;;;;;5095353;28;19923;-77
2024/02/25 05:54:13;;;;;;;;;;;256.10;2252.80;;;;;;5077635;28;20360;-78
2024/02/25 05:56:38;;;;;;;;;;;256.10;2252.80;;;;;;5076919;28;19920;-78
2024/02/25 05:59:04;;;;;;;;;;;256.10;2252.80;;;;;;5095431;28;19921;-78
2024/02/25 06:01:33;;;;;;;;;;;256.10;2252.80;;;;;;5076975;28;19986;-78
2024/02/25 06:04:00;;;;;;;;;;;256.00;2252.80;;;;;;5095715;28;19910;-78
2024/02/25 06:06:26;;;;;;;;;;;256.00;2252.80;;;;;;5095411;28;20393;-78
2024/02/25 06:08:52;;;;;;;;;;;231.20;2252.80;;;;;;5077162;28;19908;-77
2024/02/25 06:11:17;;;;;;;;;;;231.20;2252.80;;;;;;5096997;28;20380;-78
2024/02/25 06:13:43;;;;;;;;;;;231.30;2252.80;;;;;;5082524;28;19916;-76
2024/02/25 06:16:08;;;;;;;;;;;231.20;2252.80;;;;;;5085752;28;19908;-77
2024/02/25 06:18:34;;;;;;;;;;;231.10;2252.80;;;;;;5081305;28;20359;-77
2024/02/25 06:21:00;;;;;;;;;;;231.10;2252.80;;;;;;5101484;28;19912;-78
2024/02/25 06:23:25;;;;;;;;;;;231.10;2252.80;;;;;;5100053;28;19908;-76
2024/02/25 06:25:56;;;;;;;;;;;231.10;2252.80;;;;;;5083569;28;20002;-78
2024/02/25 06:28:22;;;;;;;;;;;231.00;2252.80;;;;;;5065194;28;19912;-77
2024/02/25 06:30:47;;;;;;;;;;;231.10;2252.80;;;;;;5096201;28;20257;-78
2024/02/25 06:33:13;;;;;;;;;;;231.10;2252.80;;;;;;5096591;28;19962;-78
2024/02/25 06:35:38;;;;;;;;;;;231.20;2252.80;;;;;;5063472;28;19908;-78
2024/02/25 06:38:06;;;;;;;;;;;231.20;2252.80;;;;;;5101640;28;19908;-77
2024/02/25 06:40:31;;;;;;;;;;;231.20;2252.80;;;;;;5057159;28;19946;-77
2024/02/25 06:42:57;;;;;;;;;;;231.30;2252.80;;;;;;5089321;28;20306;-78
2024/02/25 06:45:23;;;;;;;;;;;231.20;2252.80;;;;;;5085780;28;19984;-82
2024/02/25 06:47:49;;;;;;;;;;;231.20;2252.80;;;;;;5064552;28;20494;-77
2024/02/25 06:50:15;;;;;;;;;;;231.20;2252.80;;;;;;5064986;28;19909;-77
2024/02/25 06:52:40;;;;;;;;;;;231.30;2252.80;;;;;;5083140;28;20237;-78
2024/02/25 06:55:06;;;;;;;;;;;231.20;2252.80;;;;;;5083384;28;20375;-78
2024/02/25 06:57:32;;;;;;;;;;;231.30;2227.20;;;;;;5088081;28;20406;-78
2024/02/25 06:59:59;;;;;;;;;;;256.00;2252.80;;;;;;5103943;28;19924;-79
2024/02/25 07:02:25;;;;;;;;;;;256.10;2252.80;;;;;;5085213;28;19908;-79
2024/02/25 07:04:50;;;;;;;;;;;256.20;2176.00;;;;;;5069840;28;19912;-79
2024/02/25 07:07:16;;;;;;;;;;;256.30;2201.60;;;;;;5093183;28;19919;-78
2024/02/25 07:09:41;;;;;;;;;;;256.30;2048.00;;;;;;5065491;28;20379;-80
2024/02/25 07:12:07;;;;;;;;;;;256.40;2201.60;;;;;;5093244;28;19908;-75
2024/02/25 07:14:33;;;;;;;;;;;256.50;1996.80;;;;;;5085999;28;19923;-78
2024/02/25 07:16:59;;;;;;;;;;;256.50;2099.20;;;;;;5087947;28;19961;-76
2024/02/25 07:19:24;;;;;;;;;;;256.70;2099.20;;;;;;5080493;28;19999;-80
2024/02/25 07:21:50;;;;;;;;;;;256.70;1920.00;;;;;;5081791;28;19908;-76
2024/02/25 07:24:16;;;;;;;;;;;256.80;2099.20;;;;;;5094581;28;20005;-75
2024/02/25 07:26:42;;;;;;;;;;;256.90;2252.80;;;;;;5086016;28;19951;-76
2024/02/25 07:29:08;;;;;;;;;;;256.90;2252.80;;;;;;5081695;28;19916;-79
2024/02/25 07:31:34;;;;;;;;;;;256.90;2252.80;;;;;;5083805;28;19915;-77
2024/02/25 07:33:59;;;;;;;;;;;256.90;2252.80;;;;;;5089352;28;19987;-76
2024/02/25 07:36:25;;;;;;;;;;;281.60;2278.40;;;;;;5091358;28;20381;-80
2024/02/25 07:38:50;;;;;;;;;;;281.60;2278.40;;;;;;5083991;28;19958;-77
2024/02/25 07:41:16;;;;;;;;;;;281.70;2278.40;;;;;;5067470;28;19912;-77
2024/02/25 07:43:42;;;;;;;;;;;281.70;2278.40;;;;;;5070570;28;19918;-76
2024/02/25 07:46:07;;;;;;;;;;;281.70;2278.40;;;;;;5095070;28;19917;-78
2024/02/25 07:48:33;;;;;;;;;;;281.70;2252.80;;;;;;5075938;28;19916;-77
2024/02/25 07:50:59;;;;;;;;;;;281.80;2278.40;;;;;;5067934;28;19931;-76
2024/02/25 07:53:25;;;;;;;;;;;281.90;2278.40;;;;;;5084131;28;20375;-77
2024/02/25 07:55:50;;;;;;;;;;;281.90;2278.40;;;;;;5076073;28;19928;-77
2024/02/25 07:58:16;;;;;;;;;;;282.00;2176.00;;;;;;5080029;28;20283;-80
2024/02/25 08:00:42;;;;;;;;;;;282.00;2099.20;;;;;;5069559;28;19916;-77
2024/02/25 08:03:08;;;;;;;;;;;282.00;2278.40;;;;;;5086767;28;19912;-76
2024/02/25 08:05:33;;;;;;;;;;;282.00;2278.40;;;;;;5098237;28;20288;-78
2024/02/25 08:07:59;;;;;;;;;;;282.00;2278.40;;;;;;5082108;28;19954;-76
2024/02/25 08:10:25;;;;;;;;;;;282.00;2099.20;;;;;;5087464;28;20007;-78
2024/02/25 08:12:50;;;;;;;;;;;282.00;2278.40;;;;;;5087355;28;19915;-77
2024/02/25 08:15:16;;;;;;;;;;;282.10;1971.20;;;;;;5071086;28;19908;-77
2024/02/25 08:17:42;;;;;;;;;;;282.50;2048.00;;;;;;5068587;28;19959;-78
2024/02/25 08:20:08;;;;;;;;;;;282.30;2278.40;;;;;;5107814;28;20283;-78
2024/02/25 08:22:36;;;;;;;;;;;282.40;2278.40;;;;;;5069522;28;19974;-79
2024/02/25 08:25:02;;;;;;;;;;;282.50;2227.20;;;;;;5067930;28;20274;-76
2024/02/25 08:27:32;;;;;;;;;;;307.20;2304.00;;;;;;5069671;28;19978;-76
2024/02/25 08:30:03;;;;;;;;;;;307.30;2304.00;;;;;;5089608;28;19912;-77
2024/02/25 08:32:29;;;;;;;;;;;307.30;2304.00;;;;;;5075582;28;19951;-76
2024/02/25 08:34:55;;;;;;;;;;;307.50;2304.00;;;;;;5094066;28;19955;-76
2024/02/25 08:37:23;;;;;;;;;;;307.70;2048.00;;;;;;5067238;28;19909;-76
2024/02/25 08:39:52;;;;;;;;;;;307.80;2304.00;;;;;;5080006;28;19916;-78
2024/02/25 08:42:18;;;;;;;;;;;308.10;2304.00;;;;;;5060838;28;19916;-80
2024/02/25 08:44:44;;;;;;;;;;;332.80;2329.60;;;;;;5066263;28;20302;-76
2024/02/25 08:47:09;;;;;;;;;;;333.00;2329.60;;;;;;5103204;28;21183;-76
2024/02/25 08:49:36;;;;;;;;;;;333.20;2329.60;;;;;;5087226;28;19996;-75
2024/02/25 08:52:02;;;;;;;;;;;333.30;2329.60;;;;;;5083836;28;19993;-76
2024/02/25 08:54:27;;;;;;;;;;;333.30;2329.60;;;;;;5083431;28;19974;-80
2024/02/25 08:56:54;;;;;;;;;;;333.40;2329.60;;;;;;5074488;28;19927;-78
2024/02/25 08:59:19;;;;;;;;;;;333.40;2329.60;;;;;;5079695;28;19916;-81
2024/02/25 09:01:45;;;;;;;;;;;333.60;2329.60;;;;;;5083363;28;19919;-76
2024/02/25 09:04:12;;;;;;;;;;;333.70;2329.60;;;;;;5088995;28;19959;-75
2024/02/25 09:06:39;;;;;;;;;;;358.60;2329.60;;;;;;5087583;28;19920;-77
2024/02/25 09:09:05;;;;;;;;;;;358.90;2329.60;;;;;;5085467;28;20375;-76
2024/02/25 09:11:31;;;;;;;;;;;359.20;2329.60;;;;;;5076258;28;20382;-74
2024/02/25 09:13:57;;;;;;;;;;;384.10;2329.60;;;;;;5079175;28;19909;-75
2024/02/25 09:16:22;;;;;;;;;;;384.30;2329.60;;;;;;5087698;28;19908;-77
2024/02/25 09:18:48;;;;;;;;;;;384.40;2329.60;;;;;;5093956;28;19912;-76
2024/02/25 09:21:14;;;;;;;;;;;384.60;2329.60;;;;;;5082831;28;19912;-76
2024/02/25 09:23:40;;;;;;;;;;;409.70;2355.20;;;;;;5081961;28;19912;-77
2024/02/25 09:26:07;;;;;;;;;;;384.90;2329.60;;;;;;5097845;28;20000;-77
2024/02/25 09:28:33;;;;;;;;;;;409.60;2355.20;;;;;;5088365;28;19913;-76
2024/02/25 09:30:59;;;;;;;;;;;409.70;2355.20;;;;;;5088805;28;19916;-76
2024/02/25 09:33:26;;;;;;;;;;;409.90;2355.20;;;;;;5084145;28;20268;-76
2024/02/25 09:35:51;;;;;;;;;;;410.00;2355.20;;;;;;5065299;28;19915;-77
2024/02/25 09:38:17;;;;;;;;;;;409.90;2355.20;;;;;;5091814;28;19908;-75
2024/02/25 09:40:43;;;;;;;;;;;410.10;2355.20;;;;;;5082726;28;19916;-75
2024/02/25 09:43:12;;;;;;;;;;;410.30;2355.20;;;;;;5086301;28;19956;-75
2024/02/25 09:45:40;;;;;;;;;;;435.30;2355.20;;;;;;5085529;28;19918;-77
2024/02/25 09:48:08;;;;;;;;;;;435.40;2355.20;;;;;;5085428;28;20272;-76
2024/02/25 09:50:34;;;;;;;;;;;435.50;2355.20;;;;;;5081333;28;19954;-82
2024/02/25 09:53:00;;;;;;;;;;;435.50;2355.20;;;;;;5081982;28;19916;-74
2024/02/25 09:55:26;;;;;;;;;;;435.70;2355.20;;;;;;5084807;28;20258;-76
2024/02/25 09:57:52;;;;;;;;;;;435.70;2355.20;;;;;;5092352;28;19972;-75
2024/02/25 10:00:18;;;;;;;;;;;436.00;2355.20;;;;;;5088238;28;20382;-77
2024/02/25 10:02:44;;;;;;;;;;;460.80;2380.80;;;;;;5083057;28;19908;-76
2024/02/25 10:05:12;;;;;;;;;;;461.00;2380.80;;;;;;5082208;28;20069;-76
2024/02/25 10:07:38;;;;;;;;;;;461.40;2380.80;;;;;;5083736;28;19908;-77
2024/02/25 10:10:03;;;;;;;;;;;461.60;2380.80;;;;;;5075224;28;20382;-76
2024/02/25 10:12:29;;;;;;;;;;;461.70;2380.80;;;;;;5081728;28;19916;-76
2024/02/25 10:14:55;;;;;;;;;;;486.50;2380.80;;;;;;5077791;28;19919;-75
2024/02/25 10:17:21;;;;;;;;;;;486.70;2380.80;;;;;;5085441;28;19908;-75
2024/02/25 10:19:55;;;;;;;;;;;486.60;2380.80;;;;;;5079976;28;19923;-75
2024/02/25 10:22:24;;;;;;;;;;;487.00;2380.80;;;;;;5087455;28;19908;-76
2024/02/25 10:24:50;;;;;;;;;;;487.10;2355.20;;;;;;5084127;28;19908;-76
2024/02/25 10:27:18;;;;;;;;;;;487.20;2227.20;;;;;;5081146;28;19919;-77
2024/02/25 10:29:54;;;;;;;;;;;512.00;2227.20;;;;;;5083185;28;19912;-77
2024/02/25 10:32:21;;;;;;;;;;;487.30;2201.60;;;;;;5087610;28;19987;-77
2024/02/25 10:34:46;;;;;;;;;;;512.10;2252.80;;;;;;5067005;28;19912;-75
2024/02/25 10:37:12;;;;;;;;;;;512.30;2176.00;;;;;;5092392;28;19915;-77
2024/02/25 10:39:38;;;;;;;;;;;512.30;2048.00;;;;;;5082687;28;20350;-76
2024/02/25 10:42:04;;;;;;;;;;;512.50;1996.80;;;;;;5093354;28;19916;-78
2024/02/25 10:44:30;;;;;;;;;;;512.80;1996.80;;;;;;5066025;28;20007;-78
2024/02/25 10:46:57;;;;;;;;;;;512.90;1971.20;;;;;;5084010;28;19912;-77
2024/02/25 10:49:23;;;;;;;;;;;512.80;1996.80;;;;;;5064482;28;19918;-75
2024/02/25 10:51:51;;;;;;;;;;;537.60;1920.00;;;;;;5086217;28;20003;-76
2024/02/25 10:54:18;;;;;;;;;;;537.60;2022.40;;;;;;5067679;28;20244;-76
2024/02/25 10:56:43;;;;;;;;;;;512.80;1894.40;;;;;;5098417;28;19923;-75
2024/02/25 10:59:10;;;;;;;;;;;512.30;1920.00;;;;;;5080685;28;19963;-78
2024/02/25 11:01:39;;;;;;;;;;;487.20;1971.20;;;;;;5086391;28;20323;-80
2024/02/25 11:04:05;;;;;;;;;;;487.00;2048.00;;;;;;5083204;28;19920;-77
2024/02/25 11:06:32;;;;;;;;;;;486.70;2099.20;;;;;;5067874;28;19958;-78
2024/02/25 11:09:05;;;;;;;;;;;486.70;2099.20;;;;;;5086280;28;19919;-77
2024/02/25 11:11:31;;;;;;;;;;;486.80;2124.80;;;;;;5089386;28;20323;-77
2024/02/25 11:14:00;;;;;;;;;;;487.00;2073.60;;;;;;5084836;28;19908;-77
2024/02/25 11:16:49;;;;;;;;;;;487.00;2073.60;;;;;;5061484;28;19963;-79
2024/02/25 11:19:17;;;;;;;;;;;487.30;1996.80;;;;;;5035099;28;19917;-77
2024/02/25 11:21:43;;;;;;;;;;;487.30;2022.40;;;;;;5031198;28;19909;-81
2024/02/25 11:24:14;;;;;;;;;;;512.50;1971.20;;;;;;5014908;28;19909;-78
2024/02/25 11:26:41;;;;;;;;;;;512.20;1971.20;;;;;;5018671;28;19956;-78
2024/02/25 11:29:13;;;;;;;;;;;512.40;1971.20;;;;;;5018683;28;19960;-78
2024/02/25 11:31:56;;;;;;;;;;;487.30;1971.20;;;;;;5031120;28;20016;-77
2024/02/25 11:34:40;;;;;;;;;;;512.00;1920.00;;;;;;5013255;28;19917;-77
2024/02/25 11:37:06;;;;;;;;;;;512.00;1996.80;;;;;;5023371;28;19932;-77
2024/02/25 11:39:33;;;;;;;;;;;487.00;2022.40;;;;;;5014341;28;19917;-77
2024/02/25 11:42:00;;;;;;;;;;;487.00;2022.40;;;;;;5014258;28;19913;-76
2024/02/25 11:44:26;;;;;;;;;;;486.90;2022.40;;;;;;5033791;28;19909;-77
2024/02/25 11:47:12;;;;;;;;;;;487.00;1971.20;;;;;;5008087;28;19988;-76
2024/02/25 11:49:38;;;;;;;;;;;512.50;1920.00;;;;;;5029652;28;19913;-76
2024/02/25 11:52:04;;;;;;;;;;;512.60;1843.20;;;;;;5031732;28;20380;-78
2024/02/25 11:54:29;;;;;;;;;;;537.90;1894.40;;;;;;5031327;28;19910;-77
2024/02/25 11:56:56;;;;;;;;;;;538.30;1894.40;;;;;;5064747;28;19920;-77
2024/02/25 11:59:22;;;;;;;;;;;563.40;1843.20;;;;;;5086511;28;19920;-75
2024/02/25 12:01:48;;;;;;;;;;;563.20;1817.60;;;;;;5093518;28;20279;-80
2024/02/25 12:04:14;;;;;;;;;;;563.50;1740.80;;;;;;5071326;28;20003;-75
2024/02/25 12:06:40;;;;;;;;;;;563.50;1766.40;;;;;;5093624;28;19909;-76
2024/02/25 12:09:07;;;;;;;;;;;563.20;1817.60;;;;;;5093684;28;19915;-75
2024/02/25 12:11:33;;;;;;;;;;;538.50;1792.00;;;;;;5093517;28;19970;-77
2024/02/25 12:14:19;;;;;;;;;;;563.40;1792.00;;;;;;5093364;28;20477;-77
2024/02/25 12:16:45;;;;;;;;;;;563.30;1766.40;;;;;;5092697;28;20382;-77
2024/02/25 12:19:11;;;;;;;;;;;563.70;1715.20;;;;;;5075166;28;19995;-78
2024/02/25 12:21:37;;;;;;;;;;;563.80;1740.80;;;;;;5075409;28;19962;-77
2024/02/25 12:24:06;;;;;;;;;;;538.50;1817.60;;;;;;5093499;28;19912;-79
2024/02/25 12:27:07;;;;;;;;;;;537.80;1868.80;;;;;;5093339;28;19908;-78
2024/02/25 12:29:38;;;;;;;;;;;538.10;1868.80;;;;;;5037048;28;19917;-78
2024/02/25 12:32:07;;;;;;;;;;;563.30;1792.00;;;;;;5043883;28;19947;-79
2024/02/25 12:34:33;;;;;;;;;;;538.50;1792.00;;;;;;5028535;28;20408;-78
2024/02/25 12:36:59;;;;;;;;;;;538.00;1894.40;;;;;;5050854;28;19919;-78
2024/02/25 12:39:26;;;;;;;;;;;538.20;1868.80;;;;;;5034042;28;20343;-80
2024/02/25 12:41:59;;;;;;;;;;;538.50;1843.20;;;;;;5031023;28;20381;-77
2024/02/25 12:44:28;;;;;;;;;;;538.30;1817.60;;;;;;5030837;28;19915;-77
2024/02/25 12:46:54;;;;;;;;;;;538.00;1868.80;;;;;;5034228;28;19909;-79
2024/02/25 12:49:19;;;;;;;;;;;538.10;1843.20;;;;;;5037284;28;19971;-76
2024/02/25 12:51:45;;;;;;;;;;;538.40;1843.20;;;;;;5054636;28;19955;-76
2024/02/25 12:54:10;;;;;;;;;;;563.20;1843.20;;;;;;5054296;28;20414;-83
2024/02/25 12:56:42;;;;;;;;;;;538.40;1920.00;;;;;;5054028;28;20436;-77
2024/02/25 12:59:11;;;;;;;;;;;538.10;1945.60;;;;;;5054277;28;19975;-75
2024/02/25 13:01:38;;;;;;;;;;;538.00;1971.20;;;;;;5053508;28;19952;-76
2024/02/25 13:04:03;;;;;;;;;;;537.80;2022.40;;;;;;5080449;28;19908;-75
2024/02/25 13:06:30;;;;;;;;;;;537.80;1996.80;;;;;;5096456;28;19915;-74
2024/02/25 13:08:56;;;;;;;;;;;537.80;1945.60;;;;;;5096232;28;19999;-81
2024/02/25 13:11:21;;;;;;;;;;;512.90;1971.20;;;;;;5096001;28;20358;-75
2024/02/25 13:13:47;;;;;;;;;;;512.60;2022.40;;;;;;5096190;28;19908;-77
2024/02/25 13:16:13;;;;;;;;;;;512.30;1996.80;;;;;;5077958;28;19914;-76
2024/02/25 13:18:38;;;;;;;;;;;512.20;2022.40;;;;;;5096408;28;19918;-75
2024/02/25 13:21:04;;;;;;;;;;;512.00;1996.80;;;;;;5095915;28;19916;-77
2024/02/25 13:23:30;;;;;;;;;;;512.00;2022.40;;;;;;5096233;28;19998;-75
2024/02/25 13:25:59;;;;;;;;;;;487.30;2022.40;;;;;;5095909;28;19922;-76
2024/02/25 13:28:24;;;;;;;;;;;512.00;2022.40;;;;;;5111802;28;19916;-75
2024/02/25 13:30:50;;;;;;;;;;;512.20;1996.80;;;;;;5089967;28;19908;-76
2024/02/25 13:33:17;;;;;;;;;;;512.20;1971.20;;;;;;5080205;28;19915;-76
2024/02/25 13:35:42;;;;;;;;;;;512.10;1894.40;;;;;;5095841;28;19914;-76
2024/02/25 13:38:09;;;;;;;;;;;512.10;1868.80;;;;;;5077277;28;20394;-81